Aérodrome :
LOGIN :

S'inscrire | Disclaimer

   EN    FR    IT 

 










Légende :    VFR   VFR Marginal   IFR   IFR Intensif   IFR Très Intensif
Visi : 
Plafond : 
>= 8 km
>= 3000ft
5 à 8 km
1000 à 3000 ft
1500m à 5 km
500 à 1000 ft
800 à 1500m
200 à 500 ft
< 800m
< 200 ft
Symboles :   Orages  Brouillard  Fortes neiges  Fortes précipitations  Vent > 20 kt
SIGMETs :   Divers  Orages  Givrage  Turbulence  Onde Orograph.  Cendres Volcan.






- Altitude de l'aérodrome : 183 ft


LIBA - Amendola Foggia

DERNIER METAR :
  • 292355Z 27007KT CAVOK 11/09 Q1021 RMK BKN BKN200 VIS MIN 9999 WIND THR11 28007KT WIND THR29 28008KT BLU

METARs EXPIRÉS :
  • 292255Z 27006KT CAVOK 11/09 Q1021 RMK BKN BKN200 VIS MIN 9999 WIND THR11 27005KT WIND THR29 28006KT BLU
  • 292155Z 26007KT 9999 FEW060 11/09 Q1021 RMK SCT SCT200 VIS MIN 9999 WIND THR11 26007KT WIND THR29 27009KT BLU

TAF TAF LIBA
Valide du 30 à 00h jusqu'au 30 à 09h UTC


292300Z 3000/3009 28008KT 9999 SCT060
TEMPO 3002/3006 26004KT 6000 SCT020



MET'MAP, la Météo Aéronautique d'un coup d'oeil ! - Copyright ORBIFLY Décembre 2007 - Disclaimer

ORBIFLY MET'MAP TEAM :

Programmation & Développement : Alexandra Zaïnal
Sur une idée originale de : Baudouin d'Aumeries
Assistance à la programmation : Marc-Olivier Méhu
Soutien technique & logistique : Manuel Goepfert

Contact : metmap@orbifly.com




SOURCES & CREDITS :

   NOAA